sensor_id;sensor_type;location;lat;lon;timestamp;P1;durP1;ratioP1;P2;durP2;ratioP2
69854;SDS011;57146;48.140;16.304;2023-08-17T00:00:21;7.38;;;3.10;;
69854;SDS011;57146;48.140;16.304;2023-08-17T00:02:48;6.78;;;3.10;;
69854;SDS011;57146;48.140;16.304;2023-08-17T00:05:14;6.25;;;3.13;;
69854;SDS011;57146;48.140;16.304;2023-08-17T00:07:41;6.00;;;3.03;;
69854;SDS011;57146;48.140;16.304;2023-08-17T00:10:08;5.13;;;2.50;;
69854;SDS011;57146;48.140;16.304;2023-08-17T00:12:35;6.93;;;2.97;;
69854;SDS011;57146;48.140;16.304;2023-08-17T00:15:02;6.57;;;2.92;;
69854;SDS011;57146;48.140;16.304;2023-08-17T00:17:30;7.28;;;3.20;;
69854;SDS011;57146;48.140;16.304;2023-08-17T00:19:57;11.30;;;3.33;;
69854;SDS011;57146;48.140;16.304;2023-08-17T00:22:23;5.93;;;2.75;;
69854;SDS011;57146;48.140;16.304;2023-08-17T00:24:50;5.30;;;2.85;;
69854;SDS011;57146;48.140;16.304;2023-08-17T00:27:17;5.72;;;2.90;;
69854;SDS011;57146;48.140;16.304;2023-08-17T00:29:44;9.55;;;3.15;;
69854;SDS011;57146;48.140;16.304;2023-08-17T00:32:11;7.70;;;3.20;;
69854;SDS011;57146;48.140;16.304;2023-08-17T00:34:38;7.15;;;3.10;;
69854;SDS011;57146;48.140;16.304;2023-08-17T00:37:05;6.90;;;3.40;;
69854;SDS011;57146;48.140;16.304;2023-08-17T00:39:32;6.78;;;3.20;;
69854;SDS011;57146;48.140;16.304;2023-08-17T00:41:59;7.18;;;3.55;;
69854;SDS011;57146;48.140;16.304;2023-08-17T00:44:26;5.97;;;3.17;;
69854;SDS011;57146;48.140;16.304;2023-08-17T00:46:53;6.38;;;3.50;;
69854;SDS011;57146;48.140;16.304;2023-08-17T00:49:19;6.25;;;2.90;;
69854;SDS011;57146;48.140;16.304;2023-08-17T00:51:46;6.68;;;3.13;;
69854;SDS011;57146;48.140;16.304;2023-08-17T00:54:14;5.28;;;2.88;;
69854;SDS011;57146;48.140;16.304;2023-08-17T00:56:49;6.43;;;3.30;;
69854;SDS011;57146;48.140;16.304;2023-08-17T00:59:18;7.40;;;3.58;;
69854;SDS011;57146;48.140;16.304;2023-08-17T01:01:45;6.30;;;3.20;;
69854;SDS011;57146;48.140;16.304;2023-08-17T01:04:13;6.63;;;3.40;;
69854;SDS011;57146;48.140;16.304;2023-08-17T01:06:40;8.07;;;3.40;;
69854;SDS011;57146;48.140;16.304;2023-08-17T01:09:07;8.17;;;3.20;;
69854;SDS011;57146;48.140;16.304;2023-08-17T01:11:41;6.28;;;3.17;;
69854;SDS011;57146;48.140;16.304;2023-08-17T01:17:12;6.70;;;3.55;;
69854;SDS011;57146;48.140;16.304;2023-08-17T01:19:45;7.25;;;3.38;;
69854;SDS011;57146;48.140;16.304;2023-08-17T01:22:16;6.83;;;3.20;;
69854;SDS011;57146;48.140;16.304;2023-08-17T01:24:47;6.72;;;3.40;;
69854;SDS011;57146;48.140;16.304;2023-08-17T01:27:14;6.63;;;3.17;;
69854;SDS011;57146;48.140;16.304;2023-08-17T01:29:41;9.05;;;3.58;;
69854;SDS011;57146;48.140;16.304;2023-08-17T01:32:10;6.85;;;3.47;;
69854;SDS011;57146;48.140;16.304;2023-08-17T01:34:47;6.43;;;3.10;;
69854;SDS011;57146;48.140;16.304;2023-08-17T01:37:18;7.68;;;3.22;;
69854;SDS011;57146;48.140;16.304;2023-08-17T01:39:49;6.55;;;3.08;;
69854;SDS011;57146;48.140;16.304;2023-08-17T01:42:21;6.20;;;3.05;;
69854;SDS011;57146;48.140;16.304;2023-08-17T01:44:50;7.80;;;3.72;;
69854;SDS011;57146;48.140;16.304;2023-08-17T01:47:21;8.13;;;3.90;;
69854;SDS011;57146;48.140;16.304;2023-08-17T01:49:49;8.30;;;3.40;;
69854;SDS011;57146;48.140;16.304;2023-08-17T01:52:16;6.18;;;3.20;;
69854;SDS011;57146;48.140;16.304;2023-08-17T01:54:43;6.28;;;3.17;;
69854;SDS011;57146;48.140;16.304;2023-08-17T01:57:11;6.85;;;2.72;;
69854;SDS011;57146;48.140;16.304;2023-08-17T01:59:38;5.97;;;3.10;;
69854;SDS011;57146;48.140;16.304;2023-08-17T02:02:05;7.13;;;3.15;;
69854;SDS011;57146;48.140;16.304;2023-08-17T02:04:32;6.35;;;3.00;;
69854;SDS011;57146;48.140;16.304;2023-08-17T02:07:00;6.10;;;2.83;;
69854;SDS011;57146;48.140;16.304;2023-08-17T02:09:27;7.07;;;3.35;;
69854;SDS011;57146;48.140;16.304;2023-08-17T02:11:54;7.00;;;3.47;;
69854;SDS011;57146;48.140;16.304;2023-08-17T02:14:21;7.90;;;3.60;;
69854;SDS011;57146;48.140;16.304;2023-08-17T02:16:48;9.02;;;3.42;;
69854;SDS011;57146;48.140;16.304;2023-08-17T02:19:15;5.90;;;3.05;;
69854;SDS011;57146;48.140;16.304;2023-08-17T02:21:42;7.07;;;3.30;;
69854;SDS011;57146;48.140;16.304;2023-08-17T02:24:09;8.30;;;3.60;;
69854;SDS011;57146;48.140;16.304;2023-08-17T02:26:36;7.20;;;3.70;;
69854;SDS011;57146;48.140;16.304;2023-08-17T02:29:02;7.03;;;3.05;;
69854;SDS011;57146;48.140;16.304;2023-08-17T02:31:29;5.82;;;2.97;;
69854;SDS011;57146;48.140;16.304;2023-08-17T02:33:56;8.77;;;3.55;;
69854;SDS011;57146;48.140;16.304;2023-08-17T02:36:23;8.17;;;3.33;;
69854;SDS011;57146;48.140;16.304;2023-08-17T02:38:50;7.18;;;3.58;;
69854;SDS011;57146;48.140;16.304;2023-08-17T02:41:17;8.25;;;3.90;;
69854;SDS011;57146;48.140;16.304;2023-08-17T02:43:44;7.53;;;3.90;;
69854;SDS011;57146;48.140;16.304;2023-08-17T02:46:11;7.30;;;2.97;;
69854;SDS011;57146;48.140;16.304;2023-08-17T02:48:38;6.83;;;3.13;;
69854;SDS011;57146;48.140;16.304;2023-08-17T02:51:05;8.35;;;3.70;;
69854;SDS011;57146;48.140;16.304;2023-08-17T02:53:32;8.18;;;3.90;;
69854;SDS011;57146;48.140;16.304;2023-08-17T02:55:59;6.18;;;3.20;;
69854;SDS011;57146;48.140;16.304;2023-08-17T02:58:26;7.35;;;3.38;;
69854;SDS011;57146;48.140;16.304;2023-08-17T03:00:54;8.17;;;3.60;;
69854;SDS011;57146;48.140;16.304;2023-08-17T03:03:21;6.45;;;3.40;;
69854;SDS011;57146;48.140;16.304;2023-08-17T03:05:48;7.85;;;3.50;;
69854;SDS011;57146;48.140;16.304;2023-08-17T03:08:15;6.15;;;3.17;;
69854;SDS011;57146;48.140;16.304;2023-08-17T03:10:42;7.57;;;3.65;;
69854;SDS011;57146;48.140;16.304;2023-08-17T03:13:09;8.13;;;3.07;;
69854;SDS011;57146;48.140;16.304;2023-08-17T03:15:36;6.88;;;3.45;;
69854;SDS011;57146;48.140;16.304;2023-08-17T03:18:03;8.27;;;3.65;;
69854;SDS011;57146;48.140;16.304;2023-08-17T03:20:30;7.32;;;3.63;;
69854;SDS011;57146;48.140;16.304;2023-08-17T03:22:57;8.55;;;3.60;;
69854;SDS011;57146;48.140;16.304;2023-08-17T03:25:24;8.10;;;3.33;;
69854;SDS011;57146;48.140;16.304;2023-08-17T03:27:53;7.95;;;3.55;;
69854;SDS011;57146;48.140;16.304;2023-08-17T03:30:20;8.00;;;3.47;;
69854;SDS011;57146;48.140;16.304;2023-08-17T03:32:47;9.02;;;3.85;;
69854;SDS011;57146;48.140;16.304;2023-08-17T03:35:15;6.72;;;3.40;;
69854;SDS011;57146;48.140;16.304;2023-08-17T03:37:42;8.97;;;3.90;;
69854;SDS011;57146;48.140;16.304;2023-08-17T03:40:10;8.25;;;3.75;;
69854;SDS011;57146;48.140;16.304;2023-08-17T03:42:37;8.10;;;3.70;;
69854;SDS011;57146;48.140;16.304;2023-08-17T03:45:04;7.55;;;3.70;;
69854;SDS011;57146;48.140;16.304;2023-08-17T03:47:32;7.55;;;3.78;;
69854;SDS011;57146;48.140;16.304;2023-08-17T03:50:00;9.17;;;4.00;;
69854;SDS011;57146;48.140;16.304;2023-08-17T03:52:27;7.85;;;3.90;;
69854;SDS011;57146;48.140;16.304;2023-08-17T03:54:53;8.20;;;3.72;;
69854;SDS011;57146;48.140;16.304;2023-08-17T03:57:20;6.88;;;3.70;;
69854;SDS011;57146;48.140;16.304;2023-08-17T03:59:47;6.93;;;4.05;;
69854;SDS011;57146;48.140;16.304;2023-08-17T04:02:14;8.43;;;4.17;;
69854;SDS011;57146;48.140;16.304;2023-08-17T04:04:42;7.75;;;4.07;;
69854;SDS011;57146;48.140;16.304;2023-08-17T04:07:08;6.72;;;3.78;;
69854;SDS011;57146;48.140;16.304;2023-08-17T04:09:35;8.68;;;3.72;;
69854;SDS011;57146;48.140;16.304;2023-08-17T04:12:02;8.35;;;4.25;;
69854;SDS011;57146;48.140;16.304;2023-08-17T04:14:33;9.53;;;4.27;;
69854;SDS011;57146;48.140;16.304;2023-08-17T04:17:00;9.02;;;4.30;;
69854;SDS011;57146;48.140;16.304;2023-08-17T04:19:27;8.98;;;3.97;;
69854;SDS011;57146;48.140;16.304;2023-08-17T04:21:53;8.43;;;3.95;;
69854;SDS011;57146;48.140;16.304;2023-08-17T04:24:21;8.63;;;4.18;;
69854;SDS011;57146;48.140;16.304;2023-08-17T04:26:48;7.73;;;4.03;;
69854;SDS011;57146;48.140;16.304;2023-08-17T04:29:15;8.68;;;4.43;;
69854;SDS011;57146;48.140;16.304;2023-08-17T04:31:42;8.77;;;4.50;;
69854;SDS011;57146;48.140;16.304;2023-08-17T04:34:09;9.25;;;4.43;;
69854;SDS011;57146;48.140;16.304;2023-08-17T04:36:36;9.77;;;4.60;;
69854;SDS011;57146;48.140;16.304;2023-08-17T04:39:05;10.27;;;4.80;;
69854;SDS011;57146;48.140;16.304;2023-08-17T04:41:32;7.82;;;4.50;;
69854;SDS011;57146;48.140;16.304;2023-08-17T04:44:02;8.68;;;4.30;;
69854;SDS011;57146;48.140;16.304;2023-08-17T04:46:29;9.65;;;4.45;;
69854;SDS011;57146;48.140;16.304;2023-08-17T04:48:56;11.82;;;4.60;;
69854;SDS011;57146;48.140;16.304;2023-08-17T04:51:23;11.07;;;5.17;;
69854;SDS011;57146;48.140;16.304;2023-08-17T04:53:51;12.15;;;4.93;;
69854;SDS011;57146;48.140;16.304;2023-08-17T04:56:18;9.55;;;4.30;;
69854;SDS011;57146;48.140;16.304;2023-08-17T04:58:45;10.85;;;4.78;;
69854;SDS011;57146;48.140;16.304;2023-08-17T05:01:13;32.70;;;5.55;;
69854;SDS011;57146;48.140;16.304;2023-08-17T05:03:40;10.67;;;5.07;;
69854;SDS011;57146;48.140;16.304;2023-08-17T05:06:08;11.88;;;5.75;;
69854;SDS011;57146;48.140;16.304;2023-08-17T05:08:36;12.57;;;6.00;;
69854;SDS011;57146;48.140;16.304;2023-08-17T05:11:03;17.67;;;5.63;;
69854;SDS011;57146;48.140;16.304;2023-08-17T05:13:30;12.85;;;5.43;;
69854;SDS011;57146;48.140;16.304;2023-08-17T05:16:01;10.97;;;5.03;;
69854;SDS011;57146;48.140;16.304;2023-08-17T05:18:29;11.30;;;5.43;;
69854;SDS011;57146;48.140;16.304;2023-08-17T05:20:56;12.20;;;5.72;;
69854;SDS011;57146;48.140;16.304;2023-08-17T05:23:23;11.88;;;6.25;;
69854;SDS011;57146;48.140;16.304;2023-08-17T05:25:51;15.05;;;6.32;;
69854;SDS011;57146;48.140;16.304;2023-08-17T05:28:18;14.10;;;6.10;;
69854;SDS011;57146;48.140;16.304;2023-08-17T05:30:45;10.85;;;6.07;;
69854;SDS011;57146;48.140;16.304;2023-08-17T05:33:12;14.00;;;6.78;;
69854;SDS011;57146;48.140;16.304;2023-08-17T05:35:39;11.82;;;6.72;;
69854;SDS011;57146;48.140;16.304;2023-08-17T05:38:07;12.57;;;6.72;;
69854;SDS011;57146;48.140;16.304;2023-08-17T05:40:34;13.13;;;6.13;;
69854;SDS011;57146;48.140;16.304;2023-08-17T05:43:00;12.85;;;6.28;;
69854;SDS011;57146;48.140;16.304;2023-08-17T05:45:28;11.55;;;6.57;;
69854;SDS011;57146;48.140;16.304;2023-08-17T05:47:55;13.02;;;6.53;;
69854;SDS011;57146;48.140;16.304;2023-08-17T05:50:21;14.40;;;6.72;;
69854;SDS011;57146;48.140;16.304;2023-08-17T05:52:48;11.80;;;6.07;;
69854;SDS011;57146;48.140;16.304;2023-08-17T05:55:15;12.98;;;6.43;;
69854;SDS011;57146;48.140;16.304;2023-08-17T05:57:42;10.65;;;5.65;;
69854;SDS011;57146;48.140;16.304;2023-08-17T06:00:09;13.68;;;6.68;;
69854;SDS011;57146;48.140;16.304;2023-08-17T06:02:41;13.35;;;5.68;;
69854;SDS011;57146;48.140;16.304;2023-08-17T06:05:08;13.93;;;6.13;;
69854;SDS011;57146;48.140;16.304;2023-08-17T06:07:35;11.70;;;6.30;;
69854;SDS011;57146;48.140;16.304;2023-08-17T06:10:03;12.60;;;6.90;;
69854;SDS011;57146;48.140;16.304;2023-08-17T06:12:31;15.38;;;6.40;;
69854;SDS011;57146;48.140;16.304;2023-08-17T06:14:58;12.52;;;6.00;;
69854;SDS011;57146;48.140;16.304;2023-08-17T06:17:24;19.07;;;5.73;;
69854;SDS011;57146;48.140;16.304;2023-08-17T06:19:52;13.75;;;5.97;;
69854;SDS011;57146;48.140;16.304;2023-08-17T06:22:19;10.88;;;5.57;;
69854;SDS011;57146;48.140;16.304;2023-08-17T06:24:46;12.15;;;6.15;;
69854;SDS011;57146;48.140;16.304;2023-08-17T06:27:16;9.55;;;5.40;;
69854;SDS011;57146;48.140;16.304;2023-08-17T06:29:42;11.27;;;5.47;;
69854;SDS011;57146;48.140;16.304;2023-08-17T06:32:09;9.00;;;5.40;;
69854;SDS011;57146;48.140;16.304;2023-08-17T06:34:36;12.85;;;6.00;;
69854;SDS011;57146;48.140;16.304;2023-08-17T06:37:03;11.48;;;6.43;;
69854;SDS011;57146;48.140;16.304;2023-08-17T06:39:30;10.68;;;5.53;;
69854;SDS011;57146;48.140;16.304;2023-08-17T06:41:57;9.40;;;4.90;;
69854;SDS011;57146;48.140;16.304;2023-08-17T06:44:24;8.88;;;5.07;;
69854;SDS011;57146;48.140;16.304;2023-08-17T06:46:51;10.50;;;5.50;;
69854;SDS011;57146;48.140;16.304;2023-08-17T06:49:18;9.65;;;5.22;;
69854;SDS011;57146;48.140;16.304;2023-08-17T06:51:44;11.52;;;5.28;;
69854;SDS011;57146;48.140;16.304;2023-08-17T06:54:11;11.67;;;5.30;;
69854;SDS011;57146;48.140;16.304;2023-08-17T06:56:38;10.57;;;4.72;;
69854;SDS011;57146;48.140;16.304;2023-08-17T06:59:05;10.55;;;5.10;;
69854;SDS011;57146;48.140;16.304;2023-08-17T07:01:32;9.80;;;5.15;;
69854;SDS011;57146;48.140;16.304;2023-08-17T07:03:59;11.98;;;5.30;;
69854;SDS011;57146;48.140;16.304;2023-08-17T07:06:26;13.03;;;5.23;;
69854;SDS011;57146;48.140;16.304;2023-08-17T07:08:53;9.10;;;4.32;;
69854;SDS011;57146;48.140;16.304;2023-08-17T07:11:21;7.38;;;3.85;;
69854;SDS011;57146;48.140;16.304;2023-08-17T07:13:47;8.52;;;4.35;;
69854;SDS011;57146;48.140;16.304;2023-08-17T07:16:14;8.90;;;4.05;;
69854;SDS011;57146;48.140;16.304;2023-08-17T07:18:41;8.83;;;4.03;;
69854;SDS011;57146;48.140;16.304;2023-08-17T07:21:08;7.53;;;4.18;;
69854;SDS011;57146;48.140;16.304;2023-08-17T07:23:35;8.52;;;3.85;;
69854;SDS011;57146;48.140;16.304;2023-08-17T07:26:02;11.38;;;4.22;;
69854;SDS011;57146;48.140;16.304;2023-08-17T07:28:29;7.90;;;4.22;;
69854;SDS011;57146;48.140;16.304;2023-08-17T07:30:56;9.20;;;4.87;;
69854;SDS011;57146;48.140;16.304;2023-08-17T07:33:23;8.23;;;3.95;;
69854;SDS011;57146;48.140;16.304;2023-08-17T07:35:50;6.25;;;3.45;;
69854;SDS011;57146;48.140;16.304;2023-08-17T07:38:16;6.68;;;3.83;;
69854;SDS011;57146;48.140;16.304;2023-08-17T07:40:43;6.65;;;3.30;;
69854;SDS011;57146;48.140;16.304;2023-08-17T07:43:10;7.97;;;4.30;;
69854;SDS011;57146;48.140;16.304;2023-08-17T07:45:37;8.80;;;4.13;;
69854;SDS011;57146;48.140;16.304;2023-08-17T07:48:04;9.52;;;4.30;;
69854;SDS011;57146;48.140;16.304;2023-08-17T07:50:31;8.75;;;3.97;;
69854;SDS011;57146;48.140;16.304;2023-08-17T07:52:58;8.73;;;4.28;;
69854;SDS011;57146;48.140;16.304;2023-08-17T07:55:25;15.90;;;4.63;;
69854;SDS011;57146;48.140;16.304;2023-08-17T07:57:53;9.05;;;4.10;;
69854;SDS011;57146;48.140;16.304;2023-08-17T08:00:20;9.50;;;4.00;;
69854;SDS011;57146;48.140;16.304;2023-08-17T08:02:47;8.45;;;3.92;;
69854;SDS011;57146;48.140;16.304;2023-08-17T08:05:13;10.43;;;3.88;;
69854;SDS011;57146;48.140;16.304;2023-08-17T08:07:40;8.67;;;3.93;;
69854;SDS011;57146;48.140;16.304;2023-08-17T08:10:07;9.38;;;3.80;;
69854;SDS011;57146;48.140;16.304;2023-08-17T08:12:34;7.80;;;4.15;;
69854;SDS011;57146;48.140;16.304;2023-08-17T08:15:01;6.80;;;3.72;;
69854;SDS011;57146;48.140;16.304;2023-08-17T08:17:28;6.88;;;3.78;;
69854;SDS011;57146;48.140;16.304;2023-08-17T08:19:55;8.83;;;3.37;;
69854;SDS011;57146;48.140;16.304;2023-08-17T08:22:23;6.50;;;3.58;;
69854;SDS011;57146;48.140;16.304;2023-08-17T08:24:50;6.13;;;3.58;;
69854;SDS011;57146;48.140;16.304;2023-08-17T08:27:16;5.70;;;3.50;;
69854;SDS011;57146;48.140;16.304;2023-08-17T08:29:43;7.07;;;3.60;;
69854;SDS011;57146;48.140;16.304;2023-08-17T08:32:10;6.67;;;3.30;;
69854;SDS011;57146;48.140;16.304;2023-08-17T08:34:37;6.10;;;3.58;;
69854;SDS011;57146;48.140;16.304;2023-08-17T08:37:04;6.35;;;3.67;;
69854;SDS011;57146;48.140;16.304;2023-08-17T08:39:31;7.40;;;3.85;;
69854;SDS011;57146;48.140;16.304;2023-08-17T08:41:58;7.25;;;3.60;;
69854;SDS011;57146;48.140;16.304;2023-08-17T08:44:25;7.67;;;3.80;;
69854;SDS011;57146;48.140;16.304;2023-08-17T08:46:53;7.63;;;3.67;;
69854;SDS011;57146;48.140;16.304;2023-08-17T08:49:22;6.90;;;3.92;;
69854;SDS011;57146;48.140;16.304;2023-08-17T08:51:50;6.72;;;3.75;;
69854;SDS011;57146;48.140;16.304;2023-08-17T08:54:20;9.05;;;3.60;;
69854;SDS011;57146;48.140;16.304;2023-08-17T08:56:49;11.47;;;3.87;;
69854;SDS011;57146;48.140;16.304;2023-08-17T08:59:20;8.07;;;3.60;;
69854;SDS011;57146;48.140;16.304;2023-08-17T09:01:48;6.93;;;4.03;;
69854;SDS011;57146;48.140;16.304;2023-08-17T09:04:17;8.23;;;4.20;;
69854;SDS011;57146;48.140;16.304;2023-08-17T09:06:44;9.88;;;4.22;;
69854;SDS011;57146;48.140;16.304;2023-08-17T09:09:12;7.63;;;3.87;;
69854;SDS011;57146;48.140;16.304;2023-08-17T09:11:41;6.95;;;3.75;;
69854;SDS011;57146;48.140;16.304;2023-08-17T09:14:10;7.13;;;4.28;;
69854;SDS011;57146;48.140;16.304;2023-08-17T09:16:37;8.73;;;4.18;;
69854;SDS011;57146;48.140;16.304;2023-08-17T09:19:05;8.60;;;4.30;;
69854;SDS011;57146;48.140;16.304;2023-08-17T09:21:32;8.57;;;4.10;;
69854;SDS011;57146;48.140;16.304;2023-08-17T09:23:59;8.23;;;3.55;;
69854;SDS011;57146;48.140;16.304;2023-08-17T09:26:30;6.82;;;4.05;;
69854;SDS011;57146;48.140;16.304;2023-08-17T09:28:59;7.25;;;3.90;;
69854;SDS011;57146;48.140;16.304;2023-08-17T09:31:26;6.03;;;3.55;;
69854;SDS011;57146;48.140;16.304;2023-08-17T09:33:56;6.77;;;3.80;;
69854;SDS011;57146;48.140;16.304;2023-08-17T09:36:25;8.23;;;4.38;;
69854;SDS011;57146;48.140;16.304;2023-08-17T09:38:52;6.50;;;3.55;;
69854;SDS011;57146;48.140;16.304;2023-08-17T09:41:19;8.88;;;3.85;;
69854;SDS011;57146;48.140;16.304;2023-08-17T09:43:46;5.28;;;2.72;;
69854;SDS011;57146;48.140;16.304;2023-08-17T09:46:14;6.67;;;3.13;;
69854;SDS011;57146;48.140;16.304;2023-08-17T09:48:43;6.65;;;3.10;;
69854;SDS011;57146;48.140;16.304;2023-08-17T09:51:10;5.85;;;2.78;;
69854;SDS011;57146;48.140;16.304;2023-08-17T09:53:41;6.68;;;2.83;;
69854;SDS011;57146;48.140;16.304;2023-08-17T09:56:08;5.72;;;2.97;;
69854;SDS011;57146;48.140;16.304;2023-08-17T09:58:43;11.53;;;3.17;;
69854;SDS011;57146;48.140;16.304;2023-08-17T10:01:10;11.82;;;2.60;;
69854;SDS011;57146;48.140;16.304;2023-08-17T10:03:42;5.28;;;2.67;;
69854;SDS011;57146;48.140;16.304;2023-08-17T10:06:11;7.15;;;2.70;;
69854;SDS011;57146;48.140;16.304;2023-08-17T10:08:42;6.15;;;2.95;;
69854;SDS011;57146;48.140;16.304;2023-08-17T10:11:10;15.40;;;3.23;;
69854;SDS011;57146;48.140;16.304;2023-08-17T10:16:47;5.60;;;2.72;;
69854;SDS011;57146;48.140;16.304;2023-08-17T10:22:10;5.55;;;2.83;;
69854;SDS011;57146;48.140;16.304;2023-08-17T10:24:44;7.20;;;3.00;;
69854;SDS011;57146;48.140;16.304;2023-08-17T10:27:12;4.97;;;2.65;;
69854;SDS011;57146;48.140;16.304;2023-08-17T10:29:40;8.00;;;3.15;;
69854;SDS011;57146;48.140;16.304;2023-08-17T10:32:09;6.63;;;3.03;;
69854;SDS011;57146;48.140;16.304;2023-08-17T10:34:42;8.65;;;2.95;;
69854;SDS011;57146;48.140;16.304;2023-08-17T10:37:10;5.73;;;2.73;;
69854;SDS011;57146;48.140;16.304;2023-08-17T10:39:44;5.50;;;2.95;;
69854;SDS011;57146;48.140;16.304;2023-08-17T10:42:12;5.85;;;3.15;;
69854;SDS011;57146;48.140;16.304;2023-08-17T10:44:46;6.75;;;2.95;;
69854;SDS011;57146;48.140;16.304;2023-08-17T10:49:57;4.37;;;2.30;;
69854;SDS011;57146;48.140;16.304;2023-08-17T10:52:27;5.93;;;2.25;;
69854;SDS011;57146;48.140;16.304;2023-08-17T10:55:04;6.07;;;2.80;;
69854;SDS011;57146;48.140;16.304;2023-08-17T10:57:33;6.80;;;2.53;;
69854;SDS011;57146;48.140;16.304;2023-08-17T11:02:56;6.67;;;2.70;;
69854;SDS011;57146;48.140;16.304;2023-08-17T11:05:37;4.13;;;2.35;;
69854;SDS011;57146;48.140;16.304;2023-08-17T11:08:21;5.03;;;2.80;;
69854;SDS011;57146;48.140;16.304;2023-08-17T11:11:01;4.18;;;2.78;;
69854;SDS011;57146;48.140;16.304;2023-08-17T11:13:28;6.50;;;2.60;;
69854;SDS011;57146;48.140;16.304;2023-08-17T11:15:57;11.10;;;3.17;;
69854;SDS011;57146;48.140;16.304;2023-08-17T11:18:29;5.57;;;2.72;;
69854;SDS011;57146;48.140;16.304;2023-08-17T11:20:56;20.67;;;3.38;;
69854;SDS011;57146;48.140;16.304;2023-08-17T11:23:24;7.70;;;2.80;;
69854;SDS011;57146;48.140;16.304;2023-08-17T11:25:52;5.72;;;2.50;;
69854;SDS011;57146;48.140;16.304;2023-08-17T11:28:19;7.40;;;3.30;;
69854;SDS011;57146;48.140;16.304;2023-08-17T11:30:55;5.43;;;2.80;;
69854;SDS011;57146;48.140;16.304;2023-08-17T11:33:23;6.32;;;3.13;;
69854;SDS011;57146;48.140;16.304;2023-08-17T11:35:50;5.65;;;3.10;;
69854;SDS011;57146;48.140;16.304;2023-08-17T11:38:16;5.50;;;2.88;;
69854;SDS011;57146;48.140;16.304;2023-08-17T11:40:43;5.03;;;2.83;;
69854;SDS011;57146;48.140;16.304;2023-08-17T11:43:10;5.47;;;2.72;;
69854;SDS011;57146;48.140;16.304;2023-08-17T11:45:38;6.15;;;2.92;;
69854;SDS011;57146;48.140;16.304;2023-08-17T11:48:05;8.07;;;3.67;;
69854;SDS011;57146;48.140;16.304;2023-08-17T11:50:33;5.90;;;3.47;;
69854;SDS011;57146;48.140;16.304;2023-08-17T11:53:05;4.83;;;2.90;;
69854;SDS011;57146;48.140;16.304;2023-08-17T11:55:32;5.68;;;3.10;;
69854;SDS011;57146;48.140;16.304;2023-08-17T11:57:59;4.65;;;3.20;;
69854;SDS011;57146;48.140;16.304;2023-08-17T12:00:36;5.78;;;3.33;;
69854;SDS011;57146;48.140;16.304;2023-08-17T12:03:06;5.70;;;3.72;;
69854;SDS011;57146;48.140;16.304;2023-08-17T12:05:33;5.50;;;3.20;;
69854;SDS011;57146;48.140;16.304;2023-08-17T12:08:02;7.45;;;3.55;;
69854;SDS011;57146;48.140;16.304;2023-08-17T12:10:30;7.03;;;2.97;;
69854;SDS011;57146;48.140;16.304;2023-08-17T12:12:58;8.15;;;3.50;;
69854;SDS011;57146;48.140;16.304;2023-08-17T12:15:32;6.43;;;3.20;;
69854;SDS011;57146;48.140;16.304;2023-08-17T12:18:03;5.40;;;3.00;;
69854;SDS011;57146;48.140;16.304;2023-08-17T12:20:34;6.50;;;3.47;;
69854;SDS011;57146;48.140;16.304;2023-08-17T12:23:01;6.75;;;3.63;;
69854;SDS011;57146;48.140;16.304;2023-08-17T12:25:29;6.30;;;3.40;;
69854;SDS011;57146;48.140;16.304;2023-08-17T12:27:57;7.28;;;3.47;;
69854;SDS011;57146;48.140;16.304;2023-08-17T12:32:53;8.13;;;3.50;;
69854;SDS011;57146;48.140;16.304;2023-08-17T12:35:24;6.40;;;2.83;;
69854;SDS011;57146;48.140;16.304;2023-08-17T12:37:52;4.85;;;2.60;;
69854;SDS011;57146;48.140;16.304;2023-08-17T12:40:45;4.50;;;2.50;;
69854;SDS011;57146;48.140;16.304;2023-08-17T12:43:12;4.83;;;2.83;;
69854;SDS011;57146;48.140;16.304;2023-08-17T12:45:41;8.00;;;3.22;;
69854;SDS011;57146;48.140;16.304;2023-08-17T12:48:08;5.55;;;2.90;;
69854;SDS011;57146;48.140;16.304;2023-08-17T12:50:35;4.60;;;2.80;;
69854;SDS011;57146;48.140;16.304;2023-08-17T12:53:09;4.70;;;2.65;;
69854;SDS011;57146;48.140;16.304;2023-08-17T12:55:36;6.93;;;3.00;;
69854;SDS011;57146;48.140;16.304;2023-08-17T12:58:02;5.63;;;3.10;;
69854;SDS011;57146;48.140;16.304;2023-08-17T13:00:30;8.40;;;2.83;;
69854;SDS011;57146;48.140;16.304;2023-08-17T13:02:56;5.43;;;2.55;;
69854;SDS011;57146;48.140;16.304;2023-08-17T13:05:23;5.65;;;2.78;;
69854;SDS011;57146;48.140;16.304;2023-08-17T13:08:14;5.50;;;2.50;;
69854;SDS011;57146;48.140;16.304;2023-08-17T13:10:41;5.47;;;2.75;;
69854;SDS011;57146;48.140;16.304;2023-08-17T13:13:08;4.32;;;2.70;;
69854;SDS011;57146;48.140;16.304;2023-08-17T13:15:35;5.97;;;3.45;;
69854;SDS011;57146;48.140;16.304;2023-08-17T13:18:02;5.50;;;3.33;;
69854;SDS011;57146;48.140;16.304;2023-08-17T13:20:30;7.80;;;2.87;;
69854;SDS011;57146;48.140;16.304;2023-08-17T13:22:57;6.43;;;3.33;;
69854;SDS011;57146;48.140;16.304;2023-08-17T13:25:24;8.45;;;2.88;;
69854;SDS011;57146;48.140;16.304;2023-08-17T13:27:51;4.20;;;2.70;;
69854;SDS011;57146;48.140;16.304;2023-08-17T13:30:18;4.82;;;2.60;;
69854;SDS011;57146;48.140;16.304;2023-08-17T13:32:45;4.70;;;3.17;;
69854;SDS011;57146;48.140;16.304;2023-08-17T13:35:13;5.20;;;2.50;;
69854;SDS011;57146;48.140;16.304;2023-08-17T13:37:40;6.78;;;2.45;;
69854;SDS011;57146;48.140;16.304;2023-08-17T13:40:08;6.28;;;2.75;;
69854;SDS011;57146;48.140;16.304;2023-08-17T13:42:35;4.25;;;2.72;;
69854;SDS011;57146;48.140;16.304;2023-08-17T13:45:02;5.10;;;2.57;;
69854;SDS011;57146;48.140;16.304;2023-08-17T13:47:29;5.45;;;2.47;;
69854;SDS011;57146;48.140;16.304;2023-08-17T13:49:56;4.93;;;2.72;;
69854;SDS011;57146;48.140;16.304;2023-08-17T13:52:24;5.65;;;2.60;;
69854;SDS011;57146;48.140;16.304;2023-08-17T13:54:52;6.57;;;3.10;;
69854;SDS011;57146;48.140;16.304;2023-08-17T13:57:19;8.37;;;2.60;;
69854;SDS011;57146;48.140;16.304;2023-08-17T13:59:46;5.32;;;2.33;;
69854;SDS011;57146;48.140;16.304;2023-08-17T14:02:13;5.68;;;2.30;;
69854;SDS011;57146;48.140;16.304;2023-08-17T14:04:40;4.53;;;2.47;;
69854;SDS011;57146;48.140;16.304;2023-08-17T14:07:07;3.90;;;2.20;;
69854;SDS011;57146;48.140;16.304;2023-08-17T14:09:34;7.40;;;2.70;;
69854;SDS011;57146;48.140;16.304;2023-08-17T14:12:02;8.52;;;2.75;;
69854;SDS011;57146;48.140;16.304;2023-08-17T14:14:29;4.88;;;2.60;;
69854;SDS011;57146;48.140;16.304;2023-08-17T14:16:57;8.52;;;2.45;;
69854;SDS011;57146;48.140;16.304;2023-08-17T14:19:24;5.80;;;2.50;;
69854;SDS011;57146;48.140;16.304;2023-08-17T14:21:51;8.33;;;2.47;;
69854;SDS011;57146;48.140;16.304;2023-08-17T14:24:17;4.10;;;2.30;;
69854;SDS011;57146;48.140;16.304;2023-08-17T14:26:44;4.43;;;2.58;;
69854;SDS011;57146;48.140;16.304;2023-08-17T14:29:11;7.95;;;2.40;;
69854;SDS011;57146;48.140;16.304;2023-08-17T14:31:38;4.35;;;2.55;;
69854;SDS011;57146;48.140;16.304;2023-08-17T14:34:05;7.00;;;2.63;;
69854;SDS011;57146;48.140;16.304;2023-08-17T14:36:32;4.68;;;2.70;;
69854;SDS011;57146;48.140;16.304;2023-08-17T14:38:59;4.97;;;2.53;;
69854;SDS011;57146;48.140;16.304;2023-08-17T14:41:26;7.22;;;2.50;;
69854;SDS011;57146;48.140;16.304;2023-08-17T14:43:53;4.57;;;2.80;;
69854;SDS011;57146;48.140;16.304;2023-08-17T14:46:20;4.40;;;2.40;;
69854;SDS011;57146;48.140;16.304;2023-08-17T14:48:47;5.47;;;2.35;;
69854;SDS011;57146;48.140;16.304;2023-08-17T14:51:14;5.00;;;2.38;;
69854;SDS011;57146;48.140;16.304;2023-08-17T14:53:41;4.05;;;2.33;;